Jardin Guanabara Heliport

SIGA · Rio de Janeiro, Brazilië

METAR historie SIGA · Jardin Guanabara Heliport

Hieronder zie je METAR's van de afgelopen dagen. Kies een jaar om door oudere METAR's te bladeren, vanaf het jaar 2007.

29 mei 2024

Tijd Code Weer Temp. Zicht Plafond Wind METAR/SPECI
19:00
M
21 °C 10 km+ 3.000 ft 230° 230° 9 kt METAR SBGL 292200Z 23009KT 9999 BKN030 21/14 Q1012
18:00
V
21 °C 10 km+ 3.500 ft 230° 230° 12 kt METAR SBGL 292100Z 23012KT 9999 SCT030 BKN035 21/14 Q1020
17:00
M
21 °C 10 km+ 3.000 ft 220° 220° 12 kt METAR SBGL 292000Z 22012KT 9999 BKN030 OVC040 21/14 Q1019
16:00
M
22 °C 10 km+ 3.000 ft 220° 220° 13 kt METAR SBGL 291900Z 22013KT 9999 BKN030 OVC040 22/14 Q1018
15:00
M
22 °C 10 km+ 3.000 ft 230° 230° 11 kt METAR SBGL 291800Z 23011KT 9999 BKN030 OVC040 22/14 Q1018
14:00
M
23 °C 10 km+ 3.000 ft 210° 210° 11 kt METAR SBGL 291700Z 21011KT 9999 BKN030 OVC040 23/14 Q1018
13:00
V
23 °C 10 km+ 3.300 ft 210° 210° 10 kt METAR SBGL 291600Z 21010KT 9999 SCT026 OVC033 23/15 Q1018
12:00
V
22 °C 10 km+ 3.300 ft 230° 230° 10 kt METAR SBGL 291500Z 23010KT 9999 SCT026 OVC033 22/15 Q1019
11:00
V
22 °C 10 km+ 3.300 ft 250° 250° 10 kt METAR SBGL 291400Z 25010KT 9999 SCT026 OVC033 22/16 Q1020
10:00
V
22 °C 10 km+ 3.300 ft 230° 230° 9 kt METAR SBGL 291300Z 23009KT 9999 SCT026 OVC033 22/15 Q1020
09:00
V
22 °C 10 km+ 3.300 ft 260° 260° 9 kt METAR SBGL 291200Z 26009KT 9999 SCT026 OVC033 22/16 Q1019
08:00
V
21 °C 10 km+ 3.300 ft 240° 240° 10 kt METAR SBGL 291100Z 24010KT 9999 SCT026 OVC033 21/16 Q1018
07:00
M
21 °C 10 km+ 2.500 ft 220° 220° 10 kt METAR SBGL 291000Z 22010KT 9999 SCT015 OVC025 21/17 Q1018
06:00
M
21 °C 10 km+ 2.500 ft 230° 230° 8 kt METAR SBGL 290900Z 23008KT 9999 SCT015 OVC025 21/18 Q1017
05:00
M
21 °C 10 km+ 2.500 ft 230° 230° 11 kt METAR SBGL 290800Z 23011KT 9999 FEW010 SCT015 OVC025 21/19 Q1016
04:00
M
22 °C 8 km 2.000 ft 210° 210° 5 kt METAR SBGL 290700Z 21005KT 8000 SCT015 OVC020 22/19 Q1016
03:00
M
22 °C 10 km+ 2.000 ft 200° 200° 4 kt METAR SBGL 290600Z 20004KT 9999 SCT015 OVC020 22/19 Q1016
02:00
M
22 °C 10 km+ 2.000 ft 230° 230° 8 kt METAR SBGL 290500Z 23008KT 9999 SCT015 OVC020 22/19 Q1016
01:00
M
23 °C 10 km+ 1.800 ft 230° 230° 5 kt METAR SBGL 290400Z 23005KT 9999 SCT015 OVC018 23/20 Q1016
00:00
M
23 °C 10 km+ 2.000 ft 220° 220° 8 kt METAR SBGL 290300Z 22008KT 9999 SCT015 OVC020 23/20 Q1016

28 mei 2024

Tijd Code Weer Temp. Zicht Plafond Wind METAR/SPECI
23:00
M
23 °C 10 km+ 2.000 ft 230° 230° 4 kt METAR SBGL 290200Z 23004KT 9999 SCT015 OVC020 23/20 Q1016
22:00
M
23 °C 10 km+ 2.500 ft 270° 270° 3 kt METAR SBGL 290100Z 27003KT 9999 FEW015 BKN025 23/20 Q1016
21:00
V
23 °C 10 km+ 4.000 ft 240° 240° 8 kt METAR SBGL 290000Z 24008KT 9999 FEW015 BKN040 23/20 Q1016
20:00
V
24 °C 10 km+ - 250° 250° 8 kt METAR SBGL 282300Z 25008KT CAVOK 24/20 Q1015
19:00
V
24 °C 10 km+ - 240° 240° 10 kt METAR SBGL 282200Z 24010KT CAVOK 24/20 Q1015
18:00
V
25 °C 10 km+ - 260° 260° 6 kt METAR SBGL 282100Z 26006KT CAVOK 25/20 Q1014
15:00
V
27 °C 10 km+ - 130° 130° 8 kt METAR SBGL 281800Z 13008KT 9999 FEW030 27/22 Q1013
14:00
V
31 °C 10 km+ - 300° 300° 8 kt METAR SBGL 281700Z 30008KT 9999 FEW030 31/19 Q1013
13:00
V
30 °C 10 km+ - 340° 340° 5 kt METAR SBGL 281600Z 34005KT CAVOK 30/20 Q1014
12:00
V
29 °C 10 km+ - Var Var 3 kt METAR SBGL 281500Z VRB03KT CAVOK 29/20 Q1014
11:00
V
26 °C 10 km+ - 010° 010° 4 kt METAR SBGL 281400Z 01004KT 320V060 CAVOK 26/20 Q1015
10:00
V
25 °C 10 km+ - 350° 350° 4 kt METAR SBGL 281300Z 35004KT 320V020 9999 FEW007 25/20 Q1016
09:00
V
23 °C 10 km+ - 360° 360° 3 kt METAR SBGL 281200Z 36003KT 310V050 9999 FEW007 23/20 Q1016
08:00
V
22 °C 10 km+ - 350° 350° 2 kt METAR SBGL 281100Z 35002KT 9999 FEW007 22/19 Q1016
07:00
M
20 °C 5 km - Var Var 1 kt METAR SBGL 281000Z VRB01KT 5000 BR SCT008 20/19 Q1016
06:00
M
20 °C 6 km 1.000 ft 300° 300° 3 kt METAR SBGL 280900Z 30003KT 270V350 6000 BKN010 20/19 Q1015
05:00
M
20 °C 6 km 1.100 ft 320° 320° 3 kt METAR SBGL 280800Z 32003KT 290V360 6000 FEW006 BKN011 20/19 Q1015
04:00
M
20 °C 6 km - 360° 360° 0 kt METAR SBGL 280700Z 00000KT 6000 SCT006 20/19 Q1015
03:00
M
20 °C 5 km 1.900 ft 170° 170° 1 kt METAR SBGL 280600Z 17001KT 5000 BR SCT006 BKN019 20/19 Q1015
02:00
M
21 °C 5 km 1.400 ft 340° 340° 4 kt METAR SBGL 280500Z 34004KT 5000 BR SCT007 BKN014 OVC022 21/19 Q1016
01:00
M
21 °C 6 km 1.000 ft 010° 010° 2 kt METAR SBGL 280400Z 01002KT 6000 FEW008 BKN010 OVC020 21/20 Q1017
00:00
M
21 °C 5 km 2.100 ft Var Var 2 kt METAR SBGL 280300Z VRB02KT 5000 BR SCT010 BKN021 21/20 Q1018

27 mei 2024

Tijd Code Weer Temp. Zicht Plafond Wind METAR/SPECI
23:00
M
22 °C 7 km 1.300 ft Var Var 2 kt METAR SBGL 280200Z VRB02KT 7000 BKN013 OVC025 22/20 Q1018
22:00
M
21 °C 6 km 1.300 ft 360° 360° 0 kt METAR SBGL 280100Z 00000KT 6000 BKN013 OVC025 21/20 Q1018
21:00
M
22 °C 6 km 1.000 ft 050° 050° 5 kt METAR SBGL 280000Z 05005KT 020V090 6000 BKN010 OVC030 22/20 Q1018
20:40
M
22 °C 7 km 1.200 ft 060° 060° 5 kt METAR SBGL 272340Z 06005KT 7000 BKN012 OVC018 22/20 Q1018
20:00
M
21 °C 7 km 2.300 ft 060° 060° 4 kt METAR SBGL 272300Z 06004KT 7000 SCT014 OVC023 21/20 Q1019
19:00
M
21 °C 5 km 1.500 ft 100° 100° 3 kt METAR SBGL 272200Z 10003KT 5000 -RA BR SCT010 BKN015 OVC040 21/20 Q1019
18:05
M
21 °C 5 km 1.000 ft 080° 080° 3 kt METAR SBGL 272105Z 08003KT 5000 -RA BR BKN010 BKN015 OVC040 21/20 Q1019
18:00
I
21 °C 3,5 km 1.000 ft 090° 090° 2 kt METAR SBGL 272100Z 09002KT 3500 -RA BR BKN010 BKN015 OVC040 21/20 Q1019
17:00
I
21 °C 3,5 km 8.000 ft 100° 100° 4 kt METAR SBGL 272000Z 10004KT 3500 BR SCT015 OVC080 21/19 Q1018
16:00
I
22 °C 3,5 km 8.000 ft 090° 090° 5 kt METAR SBGL 271900Z 09005KT 3500 BR SCT015 OVC080 22/20 Q1018
15:00
I
22 °C 4 km 8.000 ft 080° 080° 5 kt METAR SBGL 271800Z 08005KT 4000 -RA BR SCT015 OVC080 22/20 Q1018
14:00
M
22 °C 7 km 6.000 ft 020° 020° 3 kt METAR SBGL 271700Z 02003KT 7000 -RA SCT015 OVC060 22/19 Q1019
13:00
V
22 °C 8 km 10.000 ft Var Var 2 kt METAR SBGL 271600Z VRB02KT 8000 FEW005 SCT060 BKN100 22/18 Q1019
12:00
V
22 °C 10 km+ 10.000 ft 360° 360° 3 kt METAR SBGL 271500Z 36003KT 340V040 9999 FEW005 SCT060 BKN100 22/18 Q1020
11:00
V
21 °C 10 km+ - 010° 010° 3 kt METAR SBGL 271400Z 01003KT CAVOK 21/18 Q1021
10:00
V
21 °C 10 km+ 10.000 ft 030° 030° 3 kt METAR SBGL 271300Z 03003KT 9999 FEW004 SCT060 BKN100 21/18 Q1021
09:00
V
21 °C 8 km 7.000 ft 020° 020° 3 kt METAR SBGL 271200Z 02003KT 340V050 8000 -RA FEW004 BKN070 21/18 Q1021
08:00
V
20 °C 8 km 8.000 ft 320° 320° 3 kt METAR SBGL 271100Z 32003KT 8000 -DZ FEW004 BKN080 20/18 Q1020
07:00
M
19 °C 7 km 2.300 ft 260° 260° 2 kt METAR SBGL 271000Z 26002KT 7000 FEW004 BKN023 BKN080 19/18 Q1020
06:00
M
19 °C 7 km 2.300 ft 320° 320° 6 kt METAR SBGL 270900Z 32006KT 7000 SCT004 BKN023 OVC030 19/18 Q1020
05:00
M
19 °C 7 km 2.300 ft 330° 330° 5 kt METAR SBGL 270800Z 33005KT 7000 SCT007 BKN023 BKN033 19/18 Q1020
04:00
I
19 °C 6 km 700 ft 290° 290° 2 kt METAR SBGL 270700Z 29002KT 6000 SCT005 BKN007 OVC026 19/18 Q1020
03:00
I
19 °C 6 km 700 ft 310° 310° 3 kt METAR SBGL 270600Z 31003KT 6000 SCT005 BKN007 OVC026 19/18 Q1020
Wijziging doorgeven